Terminal Aerodrome Forecast
Issued by NWS

Home | Current Version | Previous Version | Text Only | Print | Product List | Glossary On
Versions: 1 2 3 4 5 6 7 8 9 10 11 12 13 14 15 16 17 18 19 20 21 22 23 24 25 26 27 28 29 30 31 32
000
FTUS44 KHGX 130520
TAFUTS
TAF
KUTS 130520Z 1306/1406 VRB02KT P6SM SKC
     FM131000 VRB02KT P6SM SCT015
     FM131400 22005KT P6SM SKC
     FM132200 15008KT P6SM FEW050=

USA.gov is the U.S. government's official web portal to all federal, state and local government web resources and services.